KWWD/WWD METAR and TAF weather

Enter ICAO airport designator
Station Type Date Time Source
KWWD METAR 2021/09/24 05:30 UTC NOAA

KWWD 240530Z AUTO 36004KT 5SM -RA BR FEW008 BKN011 OVC019 17/17 A2999 RMK AO2 RAB06 P0005 $


Station Type Date Time Source
KWWD Decoded METAR 2021/09/24 05:30 UTC NOAA

Wildwood, Cape May County Airport, NJ, United States (KWWD) 39-01N 074-55W
Sep 24, 2021 - 01:30 AM EDT / 2021.09.24 0530 UTC
Wind: from the N (360 degrees) at 5 MPH (4 KT):0
Visibility: 5 mile(s):0
Sky conditions: overcast
Weather: light rain; mist
Precipitation last hour: 0.05 inches
Temperature: 62 F (17 C)
Dew Point: 62 F (17 C)
Relative Humidity: 100%
Pressure (altimeter): 29.99 in. Hg (1015 hPa)
ob: KWWD 240530Z AUTO 36004KT 5SM -RA BR FEW008 BKN011 OVC019 17/17 A2999 RMK AO2 RAB06 P0005
cycle: 5

Station Type Date Time Source
KWWD TAF UTC NOAA

Error!

Example: see airport list